Time;durP1;ratioP1;P1;durP2;ratioP2;P2;SDS_P1;SDS_P2;PMS_P1;PMS_P2;Temp;Humidity;BMP_temperature;BMP_pressure;BME280_temperature;BME280_humidity;BME280_pressure;Samples;Min_cycle;Max_cycle;Signal;HPM_P1;HPM_P2
2022/08/07 00:01:58;;;;;;;5.25;2.97;;;;;;;;;;5008767;28;20117;-71
2022/08/07 00:04:24;;;;;;;6.50;3.00;;;;;;;;;;5007525;28;20049;-69
2022/08/07 00:06:50;;;;;;;4.88;2.40;;;;;;;;;;5006119;28;20488;-71
2022/08/07 00:09:16;;;;;;;5.25;2.70;;;;;;;;;;5008544;28;20768;-70
2022/08/07 00:11:42;;;;;;;4.45;2.70;;;;;;;;;;5003631;28;20500;-70
2022/08/07 00:14:07;;;;;;;5.55;2.80;;;;;;;;;;5005680;28;20346;-70
2022/08/07 00:16:33;;;;;;;6.53;2.88;;;;;;;;;;5014414;28;20197;-69
2022/08/07 00:18:59;;;;;;;6.03;2.90;;;;;;;;;;5010669;28;20100;-69
2022/08/07 00:21:25;;;;;;;11.00;3.38;;;;;;;;;;5007054;28;20141;-70
2022/08/07 00:23:51;;;;;;;5.70;2.80;;;;;;;;;;5008484;28;20240;-69
2022/08/07 00:26:17;;;;;;;5.20;3.03;;;;;;;;;;5007380;28;20132;-70
2022/08/07 00:28:43;;;;;;;7.18;3.00;;;;;;;;;;5007994;28;20092;-70
2022/08/07 00:31:10;;;;;;;6.55;3.25;;;;;;;;;;5007577;28;20137;-71
2022/08/07 00:33:38;;;;;;;6.00;2.90;;;;;;;;;;5016029;28;20072;-71
2022/08/07 00:36:05;;;;;;;10.85;2.88;;;;;;;;;;5011724;28;20096;-70
2022/08/07 00:38:31;;;;;;;6.10;3.03;;;;;;;;;;5008323;28;20430;-69
2022/08/07 00:40:58;;;;;;;7.47;2.90;;;;;;;;;;5006812;28;20049;-70
2022/08/07 00:43:24;;;;;;;6.20;2.90;;;;;;;;;;5006996;28;20092;-70
2022/08/07 00:45:49;;;;;;;5.60;2.75;;;;;;;;;;5006515;28;20073;-68
2022/08/07 00:48:15;;;;;;;6.68;2.50;;;;;;;;;;5006616;28;20053;-70
2022/08/07 00:50:41;;;;;;;7.18;2.83;;;;;;;;;;5006620;28;20046;-70
2022/08/07 00:53:07;;;;;;;6.03;2.97;;;;;;;;;;5006630;28;20068;-70
2022/08/07 00:55:33;;;;;;;6.97;3.05;;;;;;;;;;5005543;28;20057;-69
2022/08/07 00:57:59;;;;;;;4.38;2.55;;;;;;;;;;5006492;28;20157;-70
2022/08/07 01:00:26;;;;;;;9.23;3.30;;;;;;;;;;5006035;28;20042;-69
2022/08/07 01:02:52;;;;;;;7.60;3.10;;;;;;;;;;4997619;28;20050;-69
2022/08/07 01:05:19;;;;;;;8.05;2.97;;;;;;;;;;5006125;28;20426;-68
2022/08/07 01:07:45;;;;;;;4.60;2.92;;;;;;;;;;5008906;28;20045;-69
2022/08/07 01:10:11;;;;;;;4.28;2.90;;;;;;;;;;5006181;28;20518;-68
2022/08/07 01:12:40;;;;;;;6.93;3.17;;;;;;;;;;5006093;28;20046;-68
2022/08/07 01:15:06;;;;;;;10.88;3.55;;;;;;;;;;5005839;28;20046;-69
2022/08/07 01:17:33;;;;;;;4.75;2.78;;;;;;;;;;5006483;28;20045;-69
2022/08/07 01:20:11;;;;;;;5.63;2.65;;;;;;;;;;5004579;28;20569;-69
2022/08/07 01:22:39;;;;;;;4.35;2.58;;;;;;;;;;5005770;28;20073;-69
2022/08/07 01:25:09;;;;;;;6.43;2.80;;;;;;;;;;5006042;28;20053;-68
2022/08/07 01:27:35;;;;;;;9.15;2.90;;;;;;;;;;5006052;28;20129;-68
2022/08/07 01:30:01;;;;;;;5.10;2.72;;;;;;;;;;5005736;28;20042;-69
2022/08/07 01:32:27;;;;;;;8.38;2.65;;;;;;;;;;5006357;28;20527;-68
2022/08/07 01:34:53;;;;;;;5.45;2.55;;;;;;;;;;5004331;28;20129;-70
2022/08/07 01:37:20;;;;;;;6.22;2.90;;;;;;;;;;5005475;28;20137;-70
2022/08/07 01:39:46;;;;;;;4.50;2.58;;;;;;;;;;5002801;28;20064;-68
2022/08/07 01:42:13;;;;;;;5.03;3.05;;;;;;;;;;5006872;28;20042;-70
2022/08/07 01:44:40;;;;;;;4.57;2.97;;;;;;;;;;5009540;28;20046;-70
2022/08/07 01:47:07;;;;;;;5.32;3.05;;;;;;;;;;5010934;28;20086;-68
2022/08/07 01:49:33;;;;;;;5.13;3.30;;;;;;;;;;5011669;28;20069;-69
2022/08/07 01:52:01;;;;;;;10.02;3.17;;;;;;;;;;5009095;28;20045;-71
2022/08/07 01:54:32;;;;;;;4.78;3.05;;;;;;;;;;5009602;28;20100;-69
2022/08/07 01:57:05;;;;;;;7.70;3.03;;;;;;;;;;5009631;28;20136;-70
2022/08/07 02:00:00;;;;;;;4.65;2.90;;;;;;;;;;5015457;28;20049;-68
2022/08/07 02:02:47;;;;;;;7.88;3.65;;;;;;;;;;5011015;28;20252;-69
2022/08/07 02:05:17;;;;;;;4.28;3.13;;;;;;;;;;5010046;28;20065;-69
2022/08/07 02:07:51;;;;;;;7.18;3.47;;;;;;;;;;5000445;28;20062;-68
2022/08/07 02:10:21;;;;;;;4.65;3.25;;;;;;;;;;5001190;28;20050;-68
2022/08/07 02:12:48;;;;;;;6.25;3.65;;;;;;;;;;5003096;28;21003;-68
2022/08/07 02:15:17;;;;;;;9.40;3.60;;;;;;;;;;5003467;28;20149;-68
2022/08/07 02:17:44;;;;;;;9.23;3.78;;;;;;;;;;5005686;28;20057;-70
2022/08/07 02:20:11;;;;;;;7.82;3.42;;;;;;;;;;5002500;28;20052;-69
2022/08/07 02:22:38;;;;;;;9.07;3.40;;;;;;;;;;5003211;28;20046;-70
2022/08/07 02:25:06;;;;;;;6.15;3.90;;;;;;;;;;5001343;28;20050;-69
2022/08/07 02:27:34;;;;;;;6.15;3.78;;;;;;;;;;5002089;28;20046;-72
2022/08/07 02:30:01;;;;;;;9.07;4.03;;;;;;;;;;5000874;28;20042;-71
2022/08/07 02:32:27;;;;;;;8.07;3.40;;;;;;;;;;5000510;28;20053;-68
2022/08/07 02:34:55;;;;;;;8.75;3.97;;;;;;;;;;5002157;28;20160;-69
2022/08/07 02:37:23;;;;;;;11.75;3.65;;;;;;;;;;4999415;28;20073;-68
2022/08/07 02:39:51;;;;;;;11.13;3.80;;;;;;;;;;5000919;28;20088;-69
2022/08/07 02:42:18;;;;;;;9.25;3.55;;;;;;;;;;5000850;28;20057;-69
2022/08/07 02:44:47;;;;;;;7.18;4.00;;;;;;;;;;5000936;28;20280;-68
2022/08/07 02:47:15;;;;;;;10.38;3.92;;;;;;;;;;5001776;28;20313;-68
2022/08/07 02:49:41;;;;;;;7.50;4.07;;;;;;;;;;5001592;28;20192;-67
2022/08/07 02:52:10;;;;;;;5.25;3.35;;;;;;;;;;5003144;28;20147;-72
2022/08/07 02:54:40;;;;;;;9.63;4.20;;;;;;;;;;5000268;28;20073;-68
2022/08/07 02:57:10;;;;;;;7.40;3.58;;;;;;;;;;4999934;28;20072;-68
2022/08/07 02:59:36;;;;;;;7.70;3.30;;;;;;;;;;4999948;28;20590;-68
2022/08/07 03:02:03;;;;;;;8.82;3.42;;;;;;;;;;5001438;28;20127;-68
2022/08/07 03:04:29;;;;;;;10.35;3.40;;;;;;;;;;5009254;28;20049;-68
2022/08/07 03:06:56;;;;;;;6.63;3.28;;;;;;;;;;5020735;28;20053;-68
2022/08/07 03:09:23;;;;;;;4.78;3.13;;;;;;;;;;5005522;28;20050;-69
2022/08/07 03:11:49;;;;;;;8.95;3.30;;;;;;;;;;5009483;28;20570;-69
2022/08/07 03:14:16;;;;;;;9.23;3.30;;;;;;;;;;5007886;28;20100;-69
2022/08/07 03:16:42;;;;;;;5.40;3.35;;;;;;;;;;5008555;28;20076;-71
2022/08/07 03:19:08;;;;;;;8.07;3.35;;;;;;;;;;5008564;28;20045;-68
2022/08/07 03:21:36;;;;;;;9.63;3.50;;;;;;;;;;5008564;28;20377;-67
2022/08/07 03:24:02;;;;;;;10.55;3.30;;;;;;;;;;5017088;28;20058;-69
2022/08/07 03:26:31;;;;;;;9.82;3.33;;;;;;;;;;5007530;28;20215;-69
2022/08/07 03:29:00;;;;;;;6.15;3.45;;;;;;;;;;5006317;28;20077;-68
2022/08/07 03:31:27;;;;;;;5.65;3.08;;;;;;;;;;5009371;28;20124;-69
2022/08/07 03:33:57;;;;;;;6.35;3.00;;;;;;;;;;5008180;28;20482;-67
2022/08/07 03:36:25;;;;;;;6.30;3.55;;;;;;;;;;5007045;28;20053;-68
2022/08/07 03:38:54;;;;;;;10.00;3.65;;;;;;;;;;5007233;28;20456;-68
2022/08/07 03:41:20;;;;;;;9.32;3.60;;;;;;;;;;5019950;28;20226;-68
2022/08/07 03:43:46;;;;;;;5.95;3.30;;;;;;;;;;5008259;28;20054;-69
2022/08/07 03:46:13;;;;;;;6.93;3.30;;;;;;;;;;5008092;28;20053;-68
2022/08/07 03:48:39;;;;;;;8.60;3.53;;;;;;;;;;5003534;28;20046;-67
2022/08/07 03:51:06;;;;;;;8.60;3.20;;;;;;;;;;4998021;28;20046;-68
2022/08/07 03:53:32;;;;;;;7.28;3.35;;;;;;;;;;5005752;28;20124;-71
2022/08/07 03:56:00;;;;;;;10.38;3.22;;;;;;;;;;5007613;28;20054;-67
2022/08/07 03:58:27;;;;;;;9.05;3.38;;;;;;;;;;5022140;28;20049;-70
2022/08/07 04:00:55;;;;;;;6.38;3.33;;;;;;;;;;5008409;28;20507;-70
2022/08/07 04:03:21;;;;;;;9.30;3.13;;;;;;;;;;5008506;28;20042;-67
2022/08/07 04:05:47;;;;;;;7.35;3.40;;;;;;;;;;5006735;28;20069;-68
2022/08/07 04:08:14;;;;;;;7.78;3.53;;;;;;;;;;5010392;28;20045;-68
2022/08/07 04:10:40;;;;;;;4.43;2.97;;;;;;;;;;5007952;28;20041;-71
2022/08/07 04:13:06;;;;;;;5.38;3.50;;;;;;;;;;5008029;28;20053;-68
2022/08/07 04:15:33;;;;;;;7.68;3.30;;;;;;;;;;5006282;28;20169;-67
2022/08/07 04:18:00;;;;;;;7.32;3.20;;;;;;;;;;5006700;28;20076;-67
2022/08/07 04:20:26;;;;;;;5.35;3.42;;;;;;;;;;5007773;28;20050;-68
2022/08/07 04:22:53;;;;;;;7.25;3.13;;;;;;;;;;5008571;28;20046;-68
2022/08/07 04:25:22;;;;;;;7.57;3.40;;;;;;;;;;5008101;28;20046;-67
2022/08/07 04:27:48;;;;;;;10.55;3.20;;;;;;;;;;5010533;28;20442;-68
2022/08/07 04:30:14;;;;;;;5.40;3.20;;;;;;;;;;5001278;28;20603;-69
2022/08/07 04:32:41;;;;;;;8.25;3.17;;;;;;;;;;5021407;28;20052;-68
2022/08/07 04:35:08;;;;;;;8.13;3.10;;;;;;;;;;5008820;28;20104;-68
2022/08/07 04:37:34;;;;;;;5.65;3.30;;;;;;;;;;5008622;28;20777;-69
2022/08/07 04:40:01;;;;;;;6.50;3.20;;;;;;;;;;5008709;28;20123;-69
2022/08/07 04:42:30;;;;;;;8.05;3.55;;;;;;;;;;5008666;28;20064;-67
2022/08/07 04:44:59;;;;;;;7.38;3.60;;;;;;;;;;5010035;28;20057;-68
2022/08/07 04:47:31;;;;;;;5.22;3.10;;;;;;;;;;5010557;28;20058;-68
2022/08/07 04:50:03;;;;;;;5.63;3.20;;;;;;;;;;5009118;28;20495;-68
2022/08/07 04:52:52;;;;;;;9.40;3.50;;;;;;;;;;5009306;28;20054;-69
2022/08/07 04:55:33;;;;;;;9.75;3.75;;;;;;;;;;5007895;28;20128;-68
2022/08/07 04:58:44;;;;;;;7.13;3.20;;;;;;;;;;5009585;28;20046;-68
2022/08/07 05:01:39;;;;;;;6.85;3.15;;;;;;;;;;5008017;28;20388;-69
2022/08/07 05:04:08;;;;;;;8.25;3.25;;;;;;;;;;5007106;28;20755;-68
2022/08/07 05:06:41;;;;;;;6.45;3.15;;;;;;;;;;5010353;28;20056;-68
2022/08/07 05:09:15;;;;;;;13.48;3.78;;;;;;;;;;5007479;28;20050;-68
2022/08/07 05:11:45;;;;;;;;;;;;;;;;;;5007447;28;20049;-66
2022/08/07 05:14:18;;;;;;;12.32;3.80;;;;;;;;;;5007815;28;19967;-70
2022/08/07 05:16:47;;;;;;;9.70;3.47;;;;;;;;;;5007273;28;20054;-68
2022/08/07 05:19:18;;;;;;;6.55;3.10;;;;;;;;;;4996521;28;20078;-66
2022/08/07 05:21:54;;;;;;;7.00;3.13;;;;;;;;;;5007353;28;20095;-69
2022/08/07 05:24:22;;;;;;;7.00;3.60;;;;;;;;;;5008209;28;20093;-68
2022/08/07 05:26:52;;;;;;;5.32;3.42;;;;;;;;;;5006918;28;20050;-68
2022/08/07 05:29:20;;;;;;;8.80;3.10;;;;;;;;;;5006828;28;20129;-68
2022/08/07 05:31:48;;;;;;;6.65;3.30;;;;;;;;;;5006293;28;20053;-67
2022/08/07 05:34:16;;;;;;;7.57;3.22;;;;;;;;;;5006876;28;20070;-67
2022/08/07 05:36:50;;;;;;;10.23;3.60;;;;;;;;;;5006139;28;20507;-68
2022/08/07 05:39:18;;;;;;;5.35;3.10;;;;;;;;;;5007327;28;20337;-69
2022/08/07 05:41:46;;;;;;;6.03;3.28;;;;;;;;;;5006134;28;20046;-67
2022/08/07 05:44:12;;;;;;;9.75;3.30;;;;;;;;;;5002442;28;20048;-68
2022/08/07 05:46:40;;;;;;;6.43;3.20;;;;;;;;;;5006320;28;20467;-69
2022/08/07 05:49:08;;;;;;;7.10;3.22;;;;;;;;;;5008285;28;20504;-67
2022/08/07 05:51:34;;;;;;;7.38;3.72;;;;;;;;;;4992096;28;20058;-68
2022/08/07 05:54:00;;;;;;;6.40;3.38;;;;;;;;;;5006676;28;20046;-70
2022/08/07 05:56:27;;;;;;;11.43;3.22;;;;;;;;;;5006600;28;20053;-69
2022/08/07 05:58:54;;;;;;;4.88;2.85;;;;;;;;;;5006929;28;20073;-69
2022/08/07 06:01:21;;;;;;;7.53;3.03;;;;;;;;;;5005985;28;20057;-69
2022/08/07 06:03:51;;;;;;;6.10;3.30;;;;;;;;;;5006484;28;20519;-71
2022/08/07 06:06:18;;;;;;;9.95;3.53;;;;;;;;;;5001456;28;20046;-69
2022/08/07 06:08:45;;;;;;;8.40;3.15;;;;;;;;;;5005023;28;20046;-69
2022/08/07 06:11:12;;;;;;;10.90;3.67;;;;;;;;;;4996571;28;20050;-70
2022/08/07 06:13:39;;;;;;;11.25;3.90;;;;;;;;;;5008401;28;20048;-69
2022/08/07 06:16:09;;;;;;;7.05;3.00;;;;;;;;;;5006604;28;20058;-68
2022/08/07 06:18:35;;;;;;;5.50;3.50;;;;;;;;;;5006579;28;20073;-68
2022/08/07 06:21:03;;;;;;;9.90;3.33;;;;;;;;;;5006188;28;20057;-69
2022/08/07 06:23:30;;;;;;;5.57;3.20;;;;;;;;;;5006017;28;20065;-72
2022/08/07 06:25:57;;;;;;;5.60;3.40;;;;;;;;;;5005870;28;20118;-69
2022/08/07 06:28:24;;;;;;;8.52;3.60;;;;;;;;;;5009046;28;20045;-70
2022/08/07 06:30:50;;;;;;;4.68;3.28;;;;;;;;;;5011534;28;20056;-70
2022/08/07 06:33:18;;;;;;;7.05;3.15;;;;;;;;;;5010979;28;20916;-69
2022/08/07 06:35:44;;;;;;;4.57;3.10;;;;;;;;;;5009799;28;20132;-71
2022/08/07 06:38:10;;;;;;;6.70;3.08;;;;;;;;;;5010296;28;20060;-71
2022/08/07 06:40:41;;;;;;;7.00;3.28;;;;;;;;;;5007256;28;20038;-68
2022/08/07 06:43:10;;;;;;;6.63;3.05;;;;;;;;;;5010848;28;20125;-69
2022/08/07 06:45:36;;;;;;;5.30;2.60;;;;;;;;;;5009182;28;20042;-69
2022/08/07 06:48:04;;;;;;;6.68;2.75;;;;;;;;;;5012620;28;20100;-72
2022/08/07 06:50:32;;;;;;;5.60;2.70;;;;;;;;;;5009939;28;20050;-69
2022/08/07 06:53:00;;;;;;;4.25;2.78;;;;;;;;;;5010448;28;20503;-68
2022/08/07 06:55:29;;;;;;;7.75;2.85;;;;;;;;;;5010007;28;20054;-70
2022/08/07 06:57:58;;;;;;;6.45;2.58;;;;;;;;;;5010577;28;20521;-69
2022/08/07 07:00:26;;;;;;;3.50;2.60;;;;;;;;;;5009307;28;20058;-70
2022/08/07 07:02:55;;;;;;;3.72;2.83;;;;;;;;;;5007534;28;20561;-70
2022/08/07 07:05:21;;;;;;;6.10;3.00;;;;;;;;;;5010417;28;20116;-68
2022/08/07 07:07:47;;;;;;;4.10;2.72;;;;;;;;;;5008871;28;20057;-69
2022/08/07 07:10:13;;;;;;;6.60;2.80;;;;;;;;;;5007480;28;20042;-70
2022/08/07 07:12:50;;;;;;;8.30;2.88;;;;;;;;;;4997615;28;20042;-69
2022/08/07 07:15:20;;;;;;;4.80;2.88;;;;;;;;;;5004213;28;20405;-69
2022/08/07 07:18:20;;;;;;;4.22;3.00;;;;;;;;;;5006942;28;20088;-69
2022/08/07 07:20:51;;;;;;;7.10;3.42;;;;;;;;;;5006407;28;20057;-70
2022/08/07 07:23:18;;;;;;;9.68;3.45;;;;;;;;;;5010786;28;20049;-69
2022/08/07 07:25:46;;;;;;;7.20;3.10;;;;;;;;;;5008441;28;20050;-69
2022/08/07 07:28:24;;;;;;;9.13;3.33;;;;;;;;;;5009595;28;20052;-68
2022/08/07 07:30:56;;;;;;;7.50;3.40;;;;;;;;;;5004434;28;20657;-70
2022/08/07 07:33:24;;;;;;;6.90;3.72;;;;;;;;;;5008909;28;20103;-68
2022/08/07 07:35:51;;;;;;;7.80;3.53;;;;;;;;;;5008003;28;20065;-71
2022/08/07 07:38:19;;;;;;;7.60;3.55;;;;;;;;;;5012667;28;20053;-70
2022/08/07 07:40:48;;;;;;;9.73;3.67;;;;;;;;;;5007813;28;20046;-69
2022/08/07 07:43:15;;;;;;;7.68;3.50;;;;;;;;;;5010409;28;20057;-70
2022/08/07 07:45:44;;;;;;;7.63;3.20;;;;;;;;;;5008887;28;20085;-70
2022/08/07 07:48:14;;;;;;;11.98;3.50;;;;;;;;;;5008406;28;20111;-67
2022/08/07 07:50:40;;;;;;;6.80;3.42;;;;;;;;;;5006587;28;20038;-68
2022/08/07 07:53:07;;;;;;;6.43;2.83;;;;;;;;;;5009125;28;20046;-69
2022/08/07 07:55:34;;;;;;;12.27;3.15;;;;;;;;;;5011743;28;20050;-69
2022/08/07 07:58:01;;;;;;;5.25;2.95;;;;;;;;;;5011553;28;20050;-69
2022/08/07 08:00:28;;;;;;;5.97;3.17;;;;;;;;;;5009165;28;20188;-68
2022/08/07 08:02:58;;;;;;;7.53;3.00;;;;;;;;;;5012774;28;20064;-69
2022/08/07 08:05:23;;;;;;;4.10;2.75;;;;;;;;;;5006904;28;20104;-69
2022/08/07 08:07:49;;;;;;;7.22;3.20;;;;;;;;;;5010293;28;20046;-68
2022/08/07 08:10:18;;;;;;;6.93;3.05;;;;;;;;;;5010007;28;20503;-69
2022/08/07 08:12:45;;;;;;;4.55;2.85;;;;;;;;;;5006886;28;20050;-73
2022/08/07 08:15:11;;;;;;;5.28;3.00;;;;;;;;;;5010207;28;20100;-70
2022/08/07 08:17:40;;;;;;;9.10;3.00;;;;;;;;;;5011244;28;20490;-69
2022/08/07 08:20:08;;;;;;;5.93;2.97;;;;;;;;;;5010616;28;20403;-69
2022/08/07 08:28:17;;;;;;;6.90;2.75;;;;;;;;;;5000018;28;20062;-71
2022/08/07 08:30:44;;;;;;;5.43;2.75;;;;;;;;;;5008778;28;20839;-73
2022/08/07 08:33:15;;;;;;;7.22;2.47;;;;;;;;;;5009830;28;20069;-70
2022/08/07 08:35:43;;;;;;;6.70;2.60;;;;;;;;;;5008045;28;20402;-70
2022/08/07 08:38:11;;;;;;;7.18;2.33;;;;;;;;;;4995389;28;20132;-70
2022/08/07 08:40:55;;;;;;;4.85;2.45;;;;;;;;;;5007354;28;20467;-71
2022/08/07 08:43:36;;;;;;;7.65;2.53;;;;;;;;;;4995992;28;20045;-67
2022/08/07 08:46:33;;;;;;;6.22;2.35;;;;;;;;;;5009356;28;20211;-70
2022/08/07 08:49:22;;;;;;;6.00;2.85;;;;;;;;;;5004236;28;20115;-71
2022/08/07 08:52:00;;;;;;;8.75;2.80;;;;;;;;;;5001575;28;20044;-72
2022/08/07 08:55:00;;;;;;;6.93;2.70;;;;;;;;;;5005420;28;20041;-73
2022/08/07 08:57:41;;;;;;;5.18;2.60;;;;;;;;;;5007975;28;20054;-70
2022/08/07 09:00:08;;;;;;;5.78;2.90;;;;;;;;;;5006524;28;20566;-72
2022/08/07 09:02:48;;;;;;;4.82;3.25;;;;;;;;;;5003870;28;20138;-72
2022/08/07 09:05:39;;;;;;;5.65;3.13;;;;;;;;;;5002482;28;20050;-70
2022/08/07 09:08:17;;;;;;;9.45;3.33;;;;;;;;;;5005783;28;20058;-69
2022/08/07 09:11:24;;;;;;;5.30;3.05;;;;;;;;;;5002455;28;20132;-71
2022/08/07 09:14:02;;;;;;;4.60;2.58;;;;;;;;;;5004377;28;20050;-72
2022/08/07 09:16:44;;;;;;;6.82;2.70;;;;;;;;;;5005232;28;20056;-71
2022/08/07 09:19:21;;;;;;;5.07;2.90;;;;;;;;;;5003060;28;20046;-70
2022/08/07 09:22:05;;;;;;;6.43;2.70;;;;;;;;;;5005640;28;20042;-70
2022/08/07 09:24:49;;;;;;;7.63;2.83;;;;;;;;;;4996253;28;20136;-69
2022/08/07 09:27:31;;;;;;;4.32;2.30;;;;;;;;;;5004438;28;20107;-71
2022/08/07 09:30:05;;;;;;;3.05;2.22;;;;;;;;;;4998146;28;20044;-70
2022/08/07 09:32:56;;;;;;;5.15;2.35;;;;;;;;;;4996736;28;20156;-71
2022/08/07 09:35:24;;;;;;;2.05;1.75;;;;;;;;;;4995594;28;20050;-73
2022/08/07 09:38:02;;;;;;;2.65;1.70;;;;;;;;;;4995975;28;20050;-70
2022/08/07 09:40:57;;;;;;;6.28;2.20;;;;;;;;;;4995104;28;20049;-69
2022/08/07 09:43:32;;;;;;;4.18;2.38;;;;;;;;;;4997334;28;20046;-69
2022/08/07 09:46:31;;;;;;;5.75;2.65;;;;;;;;;;4996256;28;20555;-69
2022/08/07 09:49:19;;;;;;;4.97;2.20;;;;;;;;;;4995396;28;20137;-72
2022/08/07 09:51:59;;;;;;;5.07;2.20;;;;;;;;;;4997669;28;20058;-73
2022/08/07 09:54:47;;;;;;;4.97;1.98;;;;;;;;;;4996204;28;20077;-70
2022/08/07 09:57:35;;;;;;;4.57;1.90;;;;;;;;;;4996040;28;20511;-71
2022/08/07 10:00:10;;;;;;;7.15;2.20;;;;;;;;;;4994361;28;20137;-68
2022/08/07 10:03:04;;;;;;;4.57;2.08;;;;;;;;;;4996375;28;20088;-71
2022/08/07 10:05:39;;;;;;;7.40;2.50;;;;;;;;;;4999258;28;20046;-76
2022/08/07 10:08:28;;;;;;;8.05;2.28;;;;;;;;;;4999225;28;20054;-74
2022/08/07 10:11:12;;;;;;;4.93;2.28;;;;;;;;;;5011581;28;20053;-74
2022/08/07 10:13:41;;;;;;;9.40;2.30;;;;;;;;;;5009106;28;20860;-72
2022/08/07 10:16:41;;;;;;;2.80;2.08;;;;;;;;;;5007489;28;20119;-73
2022/08/07 10:19:31;;;;;;;5.05;2.78;;;;;;;;;;5011040;28;20054;-72
2022/08/07 10:22:12;;;;;;;10.15;3.15;;;;;;;;;;5009277;28;20196;-72
2022/08/07 10:25:08;;;;;;;8.05;2.70;;;;;;;;;;5009009;28;20224;-74
2022/08/07 10:27:44;;;;;;;9.85;2.97;;;;;;;;;;5009221;28;20065;-74
2022/08/07 10:30:16;;;;;;;8.80;2.60;;;;;;;;;;5013505;28;20061;-75
2022/08/07 10:32:48;;;;;;;7.68;2.90;;;;;;;;;;5013881;28;20049;-76
2022/08/07 10:35:49;;;;;;;4.65;2.83;;;;;;;;;;5013706;28;21078;-70
2022/08/07 10:38:23;;;;;;;5.95;2.50;;;;;;;;;;5008805;28;20069;-72
2022/08/07 10:40:57;;;;;;;5.32;2.30;;;;;;;;;;5010011;28;20050;-70
2022/08/07 10:43:31;;;;;;;4.63;1.98;;;;;;;;;;4999398;28;20056;-72
2022/08/07 10:46:00;;;;;;;4.60;2.17;;;;;;;;;;5010046;28;20143;-74
2022/08/07 10:48:47;;;;;;;5.93;2.03;;;;;;;;;;5001956;28;20141;-72
2022/08/07 10:51:22;;;;;;;3.30;2.10;;;;;;;;;;5000454;28;20523;-70
2022/08/07 10:54:03;;;;;;;4.75;2.00;;;;;;;;;;4999939;28;20054;-68
2022/08/07 10:56:44;;;;;;;4.75;2.03;;;;;;;;;;4996205;28;20050;-70
2022/08/07 10:59:40;;;;;;;3.70;1.92;;;;;;;;;;4998235;28;20058;-70
2022/08/07 11:02:30;;;;;;;5.45;1.77;;;;;;;;;;4999948;28;20624;-72
2022/08/07 11:05:11;;;;;;;3.80;1.83;;;;;;;;;;5000660;28;20045;-70
2022/08/07 11:07:52;;;;;;;2.70;2.00;;;;;;;;;;4999180;28;20495;-70
2022/08/07 11:10:46;;;;;;;3.45;2.13;;;;;;;;;;5000380;28;20298;-69
2022/08/07 11:13:50;;;;;;;6.13;1.58;;;;;;;;;;4999593;28;20432;-70
2022/08/07 11:16:23;;;;;;;6.22;2.05;;;;;;;;;;5039370;28;20139;-69
2022/08/07 11:19:02;;;;;;;6.03;1.90;;;;;;;;;;5045052;28;20045;-70
2022/08/07 11:22:06;;;;;;;6.05;2.00;;;;;;;;;;5044651;28;20493;-69
2022/08/07 11:24:57;;;;;;;3.92;1.75;;;;;;;;;;5038752;28;20655;-70
2022/08/07 11:27:38;;;;;;;7.15;2.00;;;;;;;;;;5043184;28;20098;-70
2022/08/07 11:30:12;;;;;;;6.10;2.17;;;;;;;;;;5043817;28;20136;-71
2022/08/07 11:32:53;;;;;;;5.00;2.20;;;;;;;;;;5050468;28;20079;-70
2022/08/07 11:35:22;;;;;;;4.95;1.90;;;;;;;;;;5044814;28;20087;-72
2022/08/07 11:37:49;;;;;;;3.25;1.70;;;;;;;;;;5048839;28;20138;-69
2022/08/07 11:40:22;;;;;;;8.75;2.15;;;;;;;;;;5043745;28;20059;-71
2022/08/07 11:43:16;;;;;;;7.03;2.10;;;;;;;;;;5040226;28;20053;-70
2022/08/07 11:45:52;;;;;;;6.53;2.00;;;;;;;;;;5039408;28;20049;-71
2022/08/07 11:48:27;;;;;;;3.67;2.00;;;;;;;;;;5000983;28;20388;-72
2022/08/07 11:51:15;;;;;;;4.72;1.90;;;;;;;;;;5002555;28;20143;-72
2022/08/07 11:53:59;;;;;;;7.00;1.90;;;;;;;;;;5003533;28;20045;-72
2022/08/07 11:56:53;;;;;;;5.35;2.33;;;;;;;;;;4999231;28;20045;-72
2022/08/07 11:59:43;;;;;;;3.50;1.90;;;;;;;;;;5004557;28;20100;-70
2022/08/07 12:02:09;;;;;;;3.33;1.80;;;;;;;;;;5001608;28;20407;-68
2022/08/07 12:05:00;;;;;;;5.90;2.25;;;;;;;;;;5001929;28;20067;-68
2022/08/07 12:07:35;;;;;;;4.03;2.17;;;;;;;;;;5000795;28;20042;-69
2022/08/07 12:10:23;;;;;;;5.72;1.80;;;;;;;;;;5005110;28;20041;-66
2022/08/07 12:13:00;;;;;;;6.88;2.08;;;;;;;;;;5002383;28;20582;-67
2022/08/07 12:15:32;;;;;;;7.47;2.90;;;;;;;;;;5000263;28;20070;-70
2022/08/07 12:18:18;;;;;;;3.95;2.17;;;;;;;;;;4998348;28;20058;-71
2022/08/07 12:20:56;;;;;;;4.18;2.28;;;;;;;;;;5000296;28;20377;-69
2022/08/07 12:23:51;;;;;;;5.60;2.03;;;;;;;;;;5002383;28;20489;-70
2022/08/07 12:26:26;;;;;;;;;;;;;;;;;;5003566;28;20060;-68
2022/08/07 12:28:57;;;;;;;8.13;2.35;;;;;;;;;;5004328;28;19922;-71
2022/08/07 12:31:33;;;;;;;5.80;2.05;;;;;;;;;;5002424;28;20053;-68
2022/08/07 12:34:01;;;;;;;5.75;2.10;;;;;;;;;;5000681;28;20049;-73
2022/08/07 12:36:29;;;;;;;6.15;2.15;;;;;;;;;;5001030;28;20058;-71
2022/08/07 12:38:56;;;;;;;3.67;2.03;;;;;;;;;;5000569;28;20404;-70
2022/08/07 12:41:25;;;;;;;5.00;2.10;;;;;;;;;;4999562;28;20058;-74
2022/08/07 12:43:53;;;;;;;7.55;2.20;;;;;;;;;;5000154;28;20053;-69
2022/08/07 12:46:52;;;;;;;5.18;2.30;;;;;;;;;;4998474;28;20434;-70
2022/08/07 12:49:27;;;;;;;3.83;1.90;;;;;;;;;;5004962;28;20430;-70
2022/08/07 12:52:03;;;;;;;4.10;2.00;;;;;;;;;;4999607;28;20077;-70
2022/08/07 12:54:37;;;;;;;3.60;1.92;;;;;;;;;;4998960;28;20076;-69
2022/08/07 12:57:04;;;;;;;4.90;1.98;;;;;;;;;;4998573;28;20133;-71
2022/08/07 12:59:34;;;;;;;6.97;2.05;;;;;;;;;;5001789;28;20045;-70
2022/08/07 13:02:12;;;;;;;2.47;1.77;;;;;;;;;;5002220;28;20034;-70
2022/08/07 13:04:50;;;;;;;4.90;2.00;;;;;;;;;;4997715;28;20054;-74
2022/08/07 13:07:32;;;;;;;3.70;2.00;;;;;;;;;;4996919;28;20050;-73
2022/08/07 13:10:13;;;;;;;2.80;1.80;;;;;;;;;;4998224;28;20050;-72
2022/08/07 13:13:23;;;;;;;6.00;1.80;;;;;;;;;;4997761;28;20057;-71
2022/08/07 13:16:04;;;;;;;2.13;1.48;;;;;;;;;;4999189;28;20049;-71
2022/08/07 13:18:54;;;;;;;4.18;1.75;;;;;;;;;;5000104;28;20053;-71
2022/08/07 13:21:29;;;;;;;6.45;1.90;;;;;;;;;;5000179;28;20699;-71
2022/08/07 13:24:04;;;;;;;4.97;1.77;;;;;;;;;;4998192;28;20057;-71
2022/08/07 13:26:40;;;;;;;4.82;1.77;;;;;;;;;;4987489;28;20050;-71
2022/08/07 13:29:28;;;;;;;3.30;1.60;;;;;;;;;;4993326;28;20108;-70
2022/08/07 13:32:02;;;;;;;5.78;1.77;;;;;;;;;;4992953;28;20053;-71
2022/08/07 13:34:42;;;;;;;4.32;1.60;;;;;;;;;;4993619;28;20092;-73
2022/08/07 13:37:16;;;;;;;5.13;1.80;;;;;;;;;;4994330;28;20072;-72
2022/08/07 13:40:01;;;;;;;3.80;1.75;;;;;;;;;;4993687;28;20050;-71
2022/08/07 13:42:29;;;;;;;4.05;1.95;;;;;;;;;;4994671;28;20041;-72
2022/08/07 13:44:57;;;;;;;5.22;1.73;;;;;;;;;;4996388;28;20050;-69
2022/08/07 13:47:27;;;;;;;3.58;1.60;;;;;;;;;;4996016;28;20057;-70
2022/08/07 13:49:58;;;;;;;4.60;1.77;;;;;;;;;;5000834;28;20152;-72
2022/08/07 13:52:25;;;;;;;6.57;1.77;;;;;;;;;;4999098;28;20053;-70
2022/08/07 13:54:54;;;;;;;4.60;1.70;;;;;;;;;;5001886;28;20412;-73
2022/08/07 13:57:26;;;;;;;3.95;1.50;;;;;;;;;;4999438;28;20065;-70
2022/08/07 13:59:56;;;;;;;5.95;1.73;;;;;;;;;;4996515;28;20069;-71
2022/08/07 14:02:29;;;;;;;6.57;1.80;;;;;;;;;;4997528;28;20519;-68
2022/08/07 14:05:03;;;;;;;5.47;2.10;;;;;;;;;;4992600;28;20053;-68
2022/08/07 14:07:38;;;;;;;10.48;2.20;;;;;;;;;;4994493;28;20854;-70
2022/08/07 14:10:04;;;;;;;5.47;2.17;;;;;;;;;;4997471;28;20048;-75
2022/08/07 14:12:51;;;;;;;5.32;1.90;;;;;;;;;;4996608;28;20042;-70
2022/08/07 14:15:29;;;;;;;5.35;1.73;;;;;;;;;;4993247;28;20057;-72
2022/08/07 14:18:02;;;;;;;5.68;1.98;;;;;;;;;;4993342;28;20503;-73
2022/08/07 14:20:29;;;;;;;5.57;1.98;;;;;;;;;;4992129;28;20048;-72
2022/08/07 14:23:28;;;;;;;7.13;2.83;;;;;;;;;;4994362;28;20141;-72
2022/08/07 14:26:04;;;;;;;5.60;2.00;;;;;;;;;;5001195;28;20590;-72
2022/08/07 14:28:31;;;;;;;4.47;1.67;;;;;;;;;;5000981;28;20046;-73
2022/08/07 14:30:58;;;;;;;4.90;2.00;;;;;;;;;;5001250;28;20045;-71
2022/08/07 14:33:25;;;;;;;4.38;1.90;;;;;;;;;;5005849;28;20183;-72
2022/08/07 14:35:55;;;;;;;4.80;1.83;;;;;;;;;;5002933;28;20058;-72
2022/08/07 14:38:27;;;;;;;5.85;1.88;;;;;;;;;;4992836;28;20064;-72
2022/08/07 14:40:59;;;;;;;5.80;1.80;;;;;;;;;;4994561;28;20054;-71
2022/08/07 14:43:28;;;;;;;9.05;2.22;;;;;;;;;;4990278;28;20058;-71
2022/08/07 14:45:57;;;;;;;5.50;1.73;;;;;;;;;;4996067;28;20154;-71
2022/08/07 14:48:29;;;;;;;6.82;2.00;;;;;;;;;;4990311;28;20056;-73
2022/08/07 14:50:59;;;;;;;7.75;1.80;;;;;;;;;;4990309;28;20054;-72
2022/08/07 14:53:29;;;;;;;6.38;2.08;;;;;;;;;;4996678;28;20057;-70
2022/08/07 14:55:56;;;;;;;5.55;1.80;;;;;;;;;;4994728;28;21327;-71
2022/08/07 14:58:27;;;;;;;6.38;1.63;;;;;;;;;;4993162;28;20057;-72
2022/08/07 15:00:55;;;;;;;7.75;1.80;;;;;;;;;;4996284;28;20042;-74
2022/08/07 15:03:23;;;;;;;6.68;1.70;;;;;;;;;;4995075;28;20046;-72
2022/08/07 15:05:50;;;;;;;10.65;2.03;;;;;;;;;;4993981;28;20804;-73
2022/08/07 15:08:23;;;;;;;8.55;2.05;;;;;;;;;;4992533;28;20054;-73
2022/08/07 15:11:05;;;;;;;6.90;1.83;;;;;;;;;;4997113;28;20050;-73
2022/08/07 15:13:33;;;;;;;9.20;2.42;;;;;;;;;;4996571;28;20053;-72
2022/08/07 15:16:03;;;;;;;6.90;2.00;;;;;;;;;;4994271;28;20680;-71
2022/08/07 15:18:36;;;;;;;7.03;1.90;;;;;;;;;;4992637;28;20046;-72
2022/08/07 15:21:04;;;;;;;;;;;;;;;;;;4996711;28;20038;-72
2022/08/07 15:23:35;;;;;;;8.52;1.80;;;;;;;;;;4996225;28;19936;-70